sensor_id;sensor_type;location;lat;lon;timestamp;P1;durP1;ratioP1;P2;durP2;ratioP2
6143;SDS011;3103;49.492;8.474;2023-01-30T00:01:41;15.30;;;9.03;;
6143;SDS011;3103;49.492;8.474;2023-01-30T00:04:09;17.40;;;9.63;;
6143;SDS011;3103;49.492;8.474;2023-01-30T00:06:38;14.80;;;9.20;;
6143;SDS011;3103;49.492;8.474;2023-01-30T00:09:06;14.43;;;9.20;;
6143;SDS011;3103;49.492;8.474;2023-01-30T00:11:36;14.10;;;8.90;;
6143;SDS011;3103;49.492;8.474;2023-01-30T00:14:02;15.07;;;9.47;;
6143;SDS011;3103;49.492;8.474;2023-01-30T00:16:29;15.10;;;9.17;;
6143;SDS011;3103;49.492;8.474;2023-01-30T00:18:56;16.00;;;9.20;;
6143;SDS011;3103;49.492;8.474;2023-01-30T00:21:23;15.30;;;9.93;;
6143;SDS011;3103;49.492;8.474;2023-01-30T00:23:49;12.27;;;7.83;;
6143;SDS011;3103;49.492;8.474;2023-01-30T00:26:16;16.27;;;9.60;;
6143;SDS011;3103;49.492;8.474;2023-01-30T00:28:42;14.20;;;9.57;;
6143;SDS011;3103;49.492;8.474;2023-01-30T00:31:09;14.00;;;9.07;;
6143;SDS011;3103;49.492;8.474;2023-01-30T00:33:36;13.77;;;9.37;;
6143;SDS011;3103;49.492;8.474;2023-01-30T00:36:05;16.40;;;10.07;;
6143;SDS011;3103;49.492;8.474;2023-01-30T00:38:32;14.43;;;8.87;;
6143;SDS011;3103;49.492;8.474;2023-01-30T00:40:59;14.73;;;9.33;;
6143;SDS011;3103;49.492;8.474;2023-01-30T00:43:26;16.17;;;9.83;;
6143;SDS011;3103;49.492;8.474;2023-01-30T00:46:23;16.40;;;10.00;;
6143;SDS011;3103;49.492;8.474;2023-01-30T00:49:13;16.10;;;9.67;;
6143;SDS011;3103;49.492;8.474;2023-01-30T00:51:40;17.57;;;9.80;;
6143;SDS011;3103;49.492;8.474;2023-01-30T00:54:07;14.60;;;9.07;;
6143;SDS011;3103;49.492;8.474;2023-01-30T00:56:34;16.13;;;10.17;;
6143;SDS011;3103;49.492;8.474;2023-01-30T00:59:01;16.63;;;10.00;;
6143;SDS011;3103;49.492;8.474;2023-01-30T01:01:28;14.17;;;9.53;;
6143;SDS011;3103;49.492;8.474;2023-01-30T01:03:55;15.47;;;9.50;;
6143;SDS011;3103;49.492;8.474;2023-01-30T01:06:22;15.10;;;9.60;;
6143;SDS011;3103;49.492;8.474;2023-01-30T01:08:48;15.83;;;9.93;;
6143;SDS011;3103;49.492;8.474;2023-01-30T01:11:15;15.20;;;9.33;;
6143;SDS011;3103;49.492;8.474;2023-01-30T01:13:59;15.33;;;10.07;;
6143;SDS011;3103;49.492;8.474;2023-01-30T01:16:28;16.43;;;9.97;;
6143;SDS011;3103;49.492;8.474;2023-01-30T01:18:57;14.80;;;9.27;;
6143;SDS011;3103;49.492;8.474;2023-01-30T01:21:24;15.30;;;9.27;;
6143;SDS011;3103;49.492;8.474;2023-01-30T01:23:56;16.20;;;9.80;;
6143;SDS011;3103;49.492;8.474;2023-01-30T01:26:24;14.20;;;8.60;;
6143;SDS011;3103;49.492;8.474;2023-01-30T01:28:54;16.03;;;10.00;;
6143;SDS011;3103;49.492;8.474;2023-01-30T01:31:22;16.30;;;9.20;;
6143;SDS011;3103;49.492;8.474;2023-01-30T01:33:50;15.37;;;9.53;;
6143;SDS011;3103;49.492;8.474;2023-01-30T01:36:17;13.03;;;8.33;;
6143;SDS011;3103;49.492;8.474;2023-01-30T01:39:03;16.10;;;8.83;;
6143;SDS011;3103;49.492;8.474;2023-01-30T01:41:30;13.43;;;9.03;;
6143;SDS011;3103;49.492;8.474;2023-01-30T01:44:01;16.67;;;9.47;;
6143;SDS011;3103;49.492;8.474;2023-01-30T01:46:49;14.53;;;9.43;;
6143;SDS011;3103;49.492;8.474;2023-01-30T01:49:28;17.23;;;9.80;;
6143;SDS011;3103;49.492;8.474;2023-01-30T01:52:00;16.63;;;9.77;;
6143;SDS011;3103;49.492;8.474;2023-01-30T01:54:47;15.83;;;9.50;;
6143;SDS011;3103;49.492;8.474;2023-01-30T01:57:22;12.90;;;9.10;;
6143;SDS011;3103;49.492;8.474;2023-01-30T01:59:55;29.17;;;10.17;;
6143;SDS011;3103;49.492;8.474;2023-01-30T02:02:39;14.53;;;9.17;;
6143;SDS011;3103;49.492;8.474;2023-01-30T02:05:09;17.10;;;10.53;;
6143;SDS011;3103;49.492;8.474;2023-01-30T02:07:43;21.23;;;11.33;;
6143;SDS011;3103;49.492;8.474;2023-01-30T02:10:18;16.53;;;9.47;;
6143;SDS011;3103;49.492;8.474;2023-01-30T02:12:47;18.33;;;9.93;;
6143;SDS011;3103;49.492;8.474;2023-01-30T02:15:17;15.07;;;8.10;;
6143;SDS011;3103;49.492;8.474;2023-01-30T02:17:45;14.30;;;9.23;;
6143;SDS011;3103;49.492;8.474;2023-01-30T02:26:15;14.80;;;8.87;;
6143;SDS011;3103;49.492;8.474;2023-01-30T02:29:09;18.40;;;10.03;;
6143;SDS011;3103;49.492;8.474;2023-01-30T02:34:58;16.60;;;9.93;;
6143;SDS011;3103;49.492;8.474;2023-01-30T02:37:45;16.73;;;9.37;;
6143;SDS011;3103;49.492;8.474;2023-01-30T02:45:56;15.67;;;9.77;;
6143;SDS011;3103;49.492;8.474;2023-01-30T02:48:31;15.37;;;9.20;;
6143;SDS011;3103;49.492;8.474;2023-01-30T02:51:37;15.80;;;8.70;;
6143;SDS011;3103;49.492;8.474;2023-01-30T02:53:57;17.80;;;9.20;;
6143;SDS011;3103;49.492;8.474;2023-01-30T02:56:25;16.70;;;9.60;;
6143;SDS011;3103;49.492;8.474;2023-01-30T02:58:54;17.53;;;9.53;;
6143;SDS011;3103;49.492;8.474;2023-01-30T03:01:44;20.50;;;10.30;;
6143;SDS011;3103;49.492;8.474;2023-01-30T03:04:25;20.93;;;10.53;;
6143;SDS011;3103;49.492;8.474;2023-01-30T03:09:51;18.57;;;10.40;;
6143;SDS011;3103;49.492;8.474;2023-01-30T03:15:22;16.70;;;9.43;;
6143;SDS011;3103;49.492;8.474;2023-01-30T03:18:01;21.50;;;11.73;;
6143;SDS011;3103;49.492;8.474;2023-01-30T03:20:29;18.03;;;10.13;;
6143;SDS011;3103;49.492;8.474;2023-01-30T03:22:57;19.67;;;11.00;;
6143;SDS011;3103;49.492;8.474;2023-01-30T03:25:24;18.97;;;11.77;;
6143;SDS011;3103;49.492;8.474;2023-01-30T03:27:54;20.23;;;11.07;;
6143;SDS011;3103;49.492;8.474;2023-01-30T03:30:23;18.87;;;10.63;;
6143;SDS011;3103;49.492;8.474;2023-01-30T03:32:58;18.90;;;10.83;;
6143;SDS011;3103;49.492;8.474;2023-01-30T03:35:25;16.17;;;10.47;;
6143;SDS011;3103;49.492;8.474;2023-01-30T03:37:52;18.63;;;11.57;;
6143;SDS011;3103;49.492;8.474;2023-01-30T03:40:20;18.00;;;10.20;;
6143;SDS011;3103;49.492;8.474;2023-01-30T03:42:48;18.37;;;11.13;;
6143;SDS011;3103;49.492;8.474;2023-01-30T03:45:15;20.57;;;11.40;;
6143;SDS011;3103;49.492;8.474;2023-01-30T03:47:44;21.77;;;12.20;;
6143;SDS011;3103;49.492;8.474;2023-01-30T03:50:11;21.07;;;12.10;;
6143;SDS011;3103;49.492;8.474;2023-01-30T03:52:38;18.13;;;10.27;;
6143;SDS011;3103;49.492;8.474;2023-01-30T03:55:09;16.47;;;9.93;;
6143;SDS011;3103;49.492;8.474;2023-01-30T03:57:37;18.10;;;10.63;;
6143;SDS011;3103;49.492;8.474;2023-01-30T04:00:04;17.10;;;10.83;;
6143;SDS011;3103;49.492;8.474;2023-01-30T04:02:41;19.13;;;11.17;;
6143;SDS011;3103;49.492;8.474;2023-01-30T04:05:11;16.53;;;9.33;;
6143;SDS011;3103;49.492;8.474;2023-01-30T04:07:42;19.27;;;10.27;;
6143;SDS011;3103;49.492;8.474;2023-01-30T04:10:09;17.23;;;8.47;;
6143;SDS011;3103;49.492;8.474;2023-01-30T04:12:38;17.13;;;10.10;;
6143;SDS011;3103;49.492;8.474;2023-01-30T04:15:04;17.53;;;9.07;;
6143;SDS011;3103;49.492;8.474;2023-01-30T04:17:45;18.57;;;11.60;;
6143;SDS011;3103;49.492;8.474;2023-01-30T04:20:44;19.37;;;10.70;;
6143;SDS011;3103;49.492;8.474;2023-01-30T04:23:12;17.13;;;10.67;;
6143;SDS011;3103;49.492;8.474;2023-01-30T04:25:39;17.63;;;10.73;;
6143;SDS011;3103;49.492;8.474;2023-01-30T04:28:08;19.30;;;10.60;;
6143;SDS011;3103;49.492;8.474;2023-01-30T04:30:36;22.20;;;12.00;;
6143;SDS011;3103;49.492;8.474;2023-01-30T04:33:29;22.40;;;11.00;;
6143;SDS011;3103;49.492;8.474;2023-01-30T04:35:56;17.07;;;10.10;;
6143;SDS011;3103;49.492;8.474;2023-01-30T04:38:26;19.57;;;10.67;;
6143;SDS011;3103;49.492;8.474;2023-01-30T04:40:54;19.43;;;10.47;;
6143;SDS011;3103;49.492;8.474;2023-01-30T04:43:24;15.70;;;7.63;;
6143;SDS011;3103;49.492;8.474;2023-01-30T04:46:10;17.33;;;10.17;;
6143;SDS011;3103;49.492;8.474;2023-01-30T04:48:38;21.17;;;10.80;;
6143;SDS011;3103;49.492;8.474;2023-01-30T04:51:05;17.07;;;10.80;;
6143;SDS011;3103;49.492;8.474;2023-01-30T04:53:32;15.57;;;8.53;;
6143;SDS011;3103;49.492;8.474;2023-01-30T04:56:00;17.97;;;10.30;;
6143;SDS011;3103;49.492;8.474;2023-01-30T04:58:26;17.13;;;10.53;;
6143;SDS011;3103;49.492;8.474;2023-01-30T05:00:53;17.53;;;10.73;;
6143;SDS011;3103;49.492;8.474;2023-01-30T05:03:20;16.00;;;9.53;;
6143;SDS011;3103;49.492;8.474;2023-01-30T05:05:47;15.07;;;9.40;;
6143;SDS011;3103;49.492;8.474;2023-01-30T05:08:14;14.87;;;8.73;;
6143;SDS011;3103;49.492;8.474;2023-01-30T05:10:41;15.33;;;9.37;;
6143;SDS011;3103;49.492;8.474;2023-01-30T05:13:08;16.43;;;10.00;;
6143;SDS011;3103;49.492;8.474;2023-01-30T05:15:34;14.77;;;9.00;;
6143;SDS011;3103;49.492;8.474;2023-01-30T05:18:01;20.67;;;9.27;;
6143;SDS011;3103;49.492;8.474;2023-01-30T05:20:28;18.57;;;9.63;;
6143;SDS011;3103;49.492;8.474;2023-01-30T05:22:55;18.90;;;10.23;;
6143;SDS011;3103;49.492;8.474;2023-01-30T05:25:21;17.07;;;10.27;;
6143;SDS011;3103;49.492;8.474;2023-01-30T05:27:48;15.60;;;10.13;;
6143;SDS011;3103;49.492;8.474;2023-01-30T05:30:15;15.33;;;9.33;;
6143;SDS011;3103;49.492;8.474;2023-01-30T05:32:41;17.80;;;10.10;;
6143;SDS011;3103;49.492;8.474;2023-01-30T05:35:08;15.77;;;9.23;;
6143;SDS011;3103;49.492;8.474;2023-01-30T05:37:35;16.50;;;9.30;;
6143;SDS011;3103;49.492;8.474;2023-01-30T05:40:03;14.13;;;8.70;;
6143;SDS011;3103;49.492;8.474;2023-01-30T05:42:31;15.50;;;8.47;;
6143;SDS011;3103;49.492;8.474;2023-01-30T05:44:58;15.53;;;8.77;;
6143;SDS011;3103;49.492;8.474;2023-01-30T05:47:24;15.90;;;9.20;;
6143;SDS011;3103;49.492;8.474;2023-01-30T05:49:51;15.50;;;9.10;;
6143;SDS011;3103;49.492;8.474;2023-01-30T05:52:17;13.93;;;8.23;;
6143;SDS011;3103;49.492;8.474;2023-01-30T05:54:44;15.37;;;8.33;;
6143;SDS011;3103;49.492;8.474;2023-01-30T05:57:11;13.73;;;8.07;;
6143;SDS011;3103;49.492;8.474;2023-01-30T05:59:38;13.37;;;8.40;;
6143;SDS011;3103;49.492;8.474;2023-01-30T06:02:04;17.10;;;8.30;;
6143;SDS011;3103;49.492;8.474;2023-01-30T06:04:31;17.90;;;9.50;;
6143;SDS011;3103;49.492;8.474;2023-01-30T06:06:58;15.70;;;8.40;;
6143;SDS011;3103;49.492;8.474;2023-01-30T06:09:24;13.40;;;7.83;;
6143;SDS011;3103;49.492;8.474;2023-01-30T06:11:51;11.83;;;7.67;;
6143;SDS011;3103;49.492;8.474;2023-01-30T06:14:18;15.43;;;7.80;;
6143;SDS011;3103;49.492;8.474;2023-01-30T06:16:45;13.43;;;8.33;;
6143;SDS011;3103;49.492;8.474;2023-01-30T06:19:12;12.23;;;7.47;;
6143;SDS011;3103;49.492;8.474;2023-01-30T06:21:38;11.47;;;7.80;;
6143;SDS011;3103;49.492;8.474;2023-01-30T06:24:05;9.87;;;6.60;;
6143;SDS011;3103;49.492;8.474;2023-01-30T06:26:32;10.17;;;7.40;;
6143;SDS011;3103;49.492;8.474;2023-01-30T06:28:58;12.90;;;8.10;;
6143;SDS011;3103;49.492;8.474;2023-01-30T06:31:25;13.43;;;8.37;;
6143;SDS011;3103;49.492;8.474;2023-01-30T06:33:52;12.27;;;7.27;;
6143;SDS011;3103;49.492;8.474;2023-01-30T06:36:18;13.20;;;7.50;;
6143;SDS011;3103;49.492;8.474;2023-01-30T06:38:45;12.20;;;7.37;;
6143;SDS011;3103;49.492;8.474;2023-01-30T06:41:12;11.57;;;7.27;;
6143;SDS011;3103;49.492;8.474;2023-01-30T06:43:40;9.80;;;5.73;;
6143;SDS011;3103;49.492;8.474;2023-01-30T06:46:07;12.67;;;6.97;;
6143;SDS011;3103;49.492;8.474;2023-01-30T06:48:35;9.80;;;5.67;;
6143;SDS011;3103;49.492;8.474;2023-01-30T06:51:01;8.60;;;7.00;;
6143;SDS011;3103;49.492;8.474;2023-01-30T06:53:28;11.20;;;6.20;;
6143;SDS011;3103;49.492;8.474;2023-01-30T06:55:58;7.40;;;5.67;;
6143;SDS011;3103;49.492;8.474;2023-01-30T06:58:27;11.80;;;7.33;;
6143;SDS011;3103;49.492;8.474;2023-01-30T07:00:54;9.67;;;6.97;;
6143;SDS011;3103;49.492;8.474;2023-01-30T07:03:21;12.67;;;8.50;;
6143;SDS011;3103;49.492;8.474;2023-01-30T07:05:47;12.77;;;7.07;;
6143;SDS011;3103;49.492;8.474;2023-01-30T07:08:14;10.67;;;7.13;;
6143;SDS011;3103;49.492;8.474;2023-01-30T07:10:41;11.47;;;6.03;;
6143;SDS011;3103;49.492;8.474;2023-01-30T07:13:10;10.40;;;6.37;;
6143;SDS011;3103;49.492;8.474;2023-01-30T07:15:37;11.70;;;7.80;;
6143;SDS011;3103;49.492;8.474;2023-01-30T07:18:04;11.90;;;7.33;;
6143;SDS011;3103;49.492;8.474;2023-01-30T07:20:30;12.17;;;7.43;;
6143;SDS011;3103;49.492;8.474;2023-01-30T07:22:57;12.77;;;6.97;;
6143;SDS011;3103;49.492;8.474;2023-01-30T07:25:25;12.93;;;7.53;;
6143;SDS011;3103;49.492;8.474;2023-01-30T07:27:53;12.67;;;7.60;;
6143;SDS011;3103;49.492;8.474;2023-01-30T07:30:21;12.60;;;7.57;;
6143;SDS011;3103;49.492;8.474;2023-01-30T07:32:50;10.80;;;7.03;;
6143;SDS011;3103;49.492;8.474;2023-01-30T07:35:20;12.77;;;7.57;;
6143;SDS011;3103;49.492;8.474;2023-01-30T07:37:48;9.80;;;7.03;;
6143;SDS011;3103;49.492;8.474;2023-01-30T07:40:16;7.63;;;5.07;;
6143;SDS011;3103;49.492;8.474;2023-01-30T07:42:53;12.57;;;8.47;;
6143;SDS011;3103;49.492;8.474;2023-01-30T07:45:21;12.07;;;7.50;;
6143;SDS011;3103;49.492;8.474;2023-01-30T07:47:48;12.63;;;7.53;;
6143;SDS011;3103;49.492;8.474;2023-01-30T07:50:15;12.60;;;7.67;;
6143;SDS011;3103;49.492;8.474;2023-01-30T07:52:42;12.00;;;7.67;;
6143;SDS011;3103;49.492;8.474;2023-01-30T07:55:09;11.23;;;6.97;;
6143;SDS011;3103;49.492;8.474;2023-01-30T07:57:36;14.10;;;7.60;;
6143;SDS011;3103;49.492;8.474;2023-01-30T08:00:03;10.87;;;7.70;;
6143;SDS011;3103;49.492;8.474;2023-01-30T08:02:34;10.80;;;6.97;;
6143;SDS011;3103;49.492;8.474;2023-01-30T08:05:01;10.97;;;7.10;;
6143;SDS011;3103;49.492;8.474;2023-01-30T08:07:31;10.87;;;7.37;;
6143;SDS011;3103;49.492;8.474;2023-01-30T08:09:57;11.23;;;7.57;;
6143;SDS011;3103;49.492;8.474;2023-01-30T08:12:24;11.83;;;6.83;;
6143;SDS011;3103;49.492;8.474;2023-01-30T08:14:50;12.80;;;7.77;;
6143;SDS011;3103;49.492;8.474;2023-01-30T08:17:17;12.07;;;7.47;;
6143;SDS011;3103;49.492;8.474;2023-01-30T08:19:44;12.73;;;7.47;;
6143;SDS011;3103;49.492;8.474;2023-01-30T08:22:10;13.50;;;7.60;;
6143;SDS011;3103;49.492;8.474;2023-01-30T08:24:37;12.40;;;8.30;;
6143;SDS011;3103;49.492;8.474;2023-01-30T08:27:04;13.43;;;8.63;;
6143;SDS011;3103;49.492;8.474;2023-01-30T08:29:30;13.87;;;8.90;;
6143;SDS011;3103;49.492;8.474;2023-01-30T08:31:58;10.93;;;7.63;;
6143;SDS011;3103;49.492;8.474;2023-01-30T08:34:25;13.47;;;7.90;;
6143;SDS011;3103;49.492;8.474;2023-01-30T08:36:53;11.37;;;7.20;;
6143;SDS011;3103;49.492;8.474;2023-01-30T08:39:19;13.37;;;8.20;;
6143;SDS011;3103;49.492;8.474;2023-01-30T08:41:46;14.33;;;7.37;;
6143;SDS011;3103;49.492;8.474;2023-01-30T08:44:13;11.60;;;7.63;;
6143;SDS011;3103;49.492;8.474;2023-01-30T08:46:40;11.73;;;7.53;;
6143;SDS011;3103;49.492;8.474;2023-01-30T08:49:07;10.90;;;6.90;;
6143;SDS011;3103;49.492;8.474;2023-01-30T08:51:34;11.13;;;7.80;;
6143;SDS011;3103;49.492;8.474;2023-01-30T08:54:00;10.87;;;7.30;;
6143;SDS011;3103;49.492;8.474;2023-01-30T08:56:27;14.53;;;7.30;;
6143;SDS011;3103;49.492;8.474;2023-01-30T08:58:53;11.33;;;7.87;;
6143;SDS011;3103;49.492;8.474;2023-01-30T09:01:20;12.10;;;8.03;;
6143;SDS011;3103;49.492;8.474;2023-01-30T09:03:47;12.20;;;8.07;;
6143;SDS011;3103;49.492;8.474;2023-01-30T09:06:13;11.83;;;7.07;;
6143;SDS011;3103;49.492;8.474;2023-01-30T09:08:40;9.90;;;6.80;;
6143;SDS011;3103;49.492;8.474;2023-01-30T09:11:07;9.77;;;6.77;;
6143;SDS011;3103;49.492;8.474;2023-01-30T09:13:33;10.37;;;7.03;;
6143;SDS011;3103;49.492;8.474;2023-01-30T09:16:00;9.90;;;7.10;;
6143;SDS011;3103;49.492;8.474;2023-01-30T09:18:29;11.87;;;6.67;;
6143;SDS011;3103;49.492;8.474;2023-01-30T09:21:02;10.97;;;6.40;;
6143;SDS011;3103;49.492;8.474;2023-01-30T09:23:30;12.43;;;6.97;;
6143;SDS011;3103;49.492;8.474;2023-01-30T09:25:57;9.00;;;6.07;;
6143;SDS011;3103;49.492;8.474;2023-01-30T09:28:23;10.83;;;6.53;;
6143;SDS011;3103;49.492;8.474;2023-01-30T09:30:50;9.10;;;5.73;;
6143;SDS011;3103;49.492;8.474;2023-01-30T09:33:17;8.60;;;5.73;;
6143;SDS011;3103;49.492;8.474;2023-01-30T09:35:46;8.23;;;5.53;;
6143;SDS011;3103;49.492;8.474;2023-01-30T09:38:13;7.97;;;4.93;;
6143;SDS011;3103;49.492;8.474;2023-01-30T09:41:06;7.90;;;5.77;;
6143;SDS011;3103;49.492;8.474;2023-01-30T09:49:26;7.67;;;5.00;;
6143;SDS011;3103;49.492;8.474;2023-01-30T09:52:11;8.10;;;4.77;;
6143;SDS011;3103;49.492;8.474;2023-01-30T09:54:43;6.97;;;4.13;;
6143;SDS011;3103;49.492;8.474;2023-01-30T10:05:39;9.60;;;6.63;;
6143;SDS011;3103;49.492;8.474;2023-01-30T10:16:20;8.47;;;5.43;;
6143;SDS011;3103;49.492;8.474;2023-01-30T10:27:32;12.97;;;6.30;;
6143;SDS011;3103;49.492;8.474;2023-01-30T10:30:03;8.77;;;5.50;;
6143;SDS011;3103;49.492;8.474;2023-01-30T10:32:52;9.37;;;6.37;;
6143;SDS011;3103;49.492;8.474;2023-01-30T10:35:28;12.97;;;7.37;;
6143;SDS011;3103;49.492;8.474;2023-01-30T10:38:16;11.17;;;7.07;;
6143;SDS011;3103;49.492;8.474;2023-01-30T10:46:17;6.93;;;4.83;;
6143;SDS011;3103;49.492;8.474;2023-01-30T10:49:18;7.97;;;5.40;;
6143;SDS011;3103;49.492;8.474;2023-01-30T10:52:03;8.30;;;5.50;;
6143;SDS011;3103;49.492;8.474;2023-01-30T10:54:47;6.57;;;4.70;;
6143;SDS011;3103;49.492;8.474;2023-01-30T11:00:24;9.33;;;5.77;;
6143;SDS011;3103;49.492;8.474;2023-01-30T11:05:40;7.60;;;5.30;;
6143;SDS011;3103;49.492;8.474;2023-01-30T11:08:30;10.47;;;6.03;;
6143;SDS011;3103;49.492;8.474;2023-01-30T11:10:59;9.13;;;5.80;;
6143;SDS011;3103;49.492;8.474;2023-01-30T11:13:30;9.77;;;6.47;;
6143;SDS011;3103;49.492;8.474;2023-01-30T11:16:01;9.33;;;5.90;;
6143;SDS011;3103;49.492;8.474;2023-01-30T11:18:31;11.77;;;5.63;;
6143;SDS011;3103;49.492;8.474;2023-01-30T11:21:23;8.17;;;5.87;;
6143;SDS011;3103;49.492;8.474;2023-01-30T11:24:12;7.53;;;4.77;;
6143;SDS011;3103;49.492;8.474;2023-01-30T11:26:47;10.77;;;6.17;;
6143;SDS011;3103;49.492;8.474;2023-01-30T11:29:27;8.40;;;5.43;;
6143;SDS011;3103;49.492;8.474;2023-01-30T11:31:55;7.73;;;5.63;;
6143;SDS011;3103;49.492;8.474;2023-01-30T11:34:28;7.30;;;5.07;;
6143;SDS011;3103;49.492;8.474;2023-01-30T11:37:11;7.30;;;5.10;;
6143;SDS011;3103;49.492;8.474;2023-01-30T11:39:46;7.70;;;5.00;;
6143;SDS011;3103;49.492;8.474;2023-01-30T11:42:15;8.30;;;5.07;;
6143;SDS011;3103;49.492;8.474;2023-01-30T11:44:44;7.50;;;5.03;;
6143;SDS011;3103;49.492;8.474;2023-01-30T11:47:18;8.83;;;5.97;;
6143;SDS011;3103;49.492;8.474;2023-01-30T11:49:52;6.40;;;4.93;;
6143;SDS011;3103;49.492;8.474;2023-01-30T11:52:29;8.83;;;5.40;;
6143;SDS011;3103;49.492;8.474;2023-01-30T11:54:59;8.40;;;5.53;;
6143;SDS011;3103;49.492;8.474;2023-01-30T11:57:37;7.57;;;4.93;;
6143;SDS011;3103;49.492;8.474;2023-01-30T12:00:17;8.47;;;5.07;;
6143;SDS011;3103;49.492;8.474;2023-01-30T12:02:46;7.67;;;5.40;;
6143;SDS011;3103;49.492;8.474;2023-01-30T12:11:00;8.30;;;5.30;;
6143;SDS011;3103;49.492;8.474;2023-01-30T12:13:36;14.33;;;8.40;;
6143;SDS011;3103;49.492;8.474;2023-01-30T12:16:10;11.43;;;6.30;;
6143;SDS011;3103;49.492;8.474;2023-01-30T12:18:51;6.83;;;4.40;;
6143;SDS011;3103;49.492;8.474;2023-01-30T12:21:33;8.27;;;5.47;;
6143;SDS011;3103;49.492;8.474;2023-01-30T12:24:45;5.73;;;4.23;;
6143;SDS011;3103;49.492;8.474;2023-01-30T12:27:26;9.07;;;5.87;;
6143;SDS011;3103;49.492;8.474;2023-01-30T12:30:03;4.80;;;4.10;;
6143;SDS011;3103;49.492;8.474;2023-01-30T12:32:41;7.90;;;4.90;;
6143;SDS011;3103;49.492;8.474;2023-01-30T12:35:17;7.03;;;4.37;;
6143;SDS011;3103;49.492;8.474;2023-01-30T12:40:29;9.43;;;4.53;;
6143;SDS011;3103;49.492;8.474;2023-01-30T12:43:33;8.60;;;5.37;;
6143;SDS011;3103;49.492;8.474;2023-01-30T12:46:33;5.30;;;4.23;;
6143;SDS011;3103;49.492;8.474;2023-01-30T12:49:56;4.90;;;3.20;;
6143;SDS011;3103;49.492;8.474;2023-01-30T12:52:28;7.50;;;4.00;;
6143;SDS011;3103;49.492;8.474;2023-01-30T12:58:31;4.87;;;3.73;;
6143;SDS011;3103;49.492;8.474;2023-01-30T13:01:15;5.23;;;4.33;;
6143;SDS011;3103;49.492;8.474;2023-01-30T13:09:50;7.03;;;4.60;;
6143;SDS011;3103;49.492;8.474;2023-01-30T13:12:34;6.33;;;4.47;;
6143;SDS011;3103;49.492;8.474;2023-01-30T13:23:30;9.87;;;5.67;;
6143;SDS011;3103;49.492;8.474;2023-01-30T13:26:38;6.33;;;5.03;;
6143;SDS011;3103;49.492;8.474;2023-01-30T13:29:43;10.50;;;6.60;;
6143;SDS011;3103;49.492;8.474;2023-01-30T13:31:57;11.97;;;5.63;;
6143;SDS011;3103;49.492;8.474;2023-01-30T13:34:30;13.97;;;6.77;;
6143;SDS011;3103;49.492;8.474;2023-01-30T13:37:01;11.33;;;6.73;;
6143;SDS011;3103;49.492;8.474;2023-01-30T13:39:52;9.27;;;5.53;;
6143;SDS011;3103;49.492;8.474;2023-01-30T13:45:10;7.47;;;4.70;;
6143;SDS011;3103;49.492;8.474;2023-01-30T13:53:33;7.03;;;4.80;;
6143;SDS011;3103;49.492;8.474;2023-01-30T14:09:41;5.67;;;4.00;;
6143;SDS011;3103;49.492;8.474;2023-01-30T14:12:17;11.07;;;4.97;;
6143;SDS011;3103;49.492;8.474;2023-01-30T14:20:26;6.73;;;4.73;;
6143;SDS011;3103;49.492;8.474;2023-01-30T14:23:01;6.73;;;4.70;;
6143;SDS011;3103;49.492;8.474;2023-01-30T14:25:32;7.27;;;4.00;;
6143;SDS011;3103;49.492;8.474;2023-01-30T14:30:48;7.33;;;5.03;;
6143;SDS011;3103;49.492;8.474;2023-01-30T14:36:30;7.90;;;5.07;;
6143;SDS011;3103;49.492;8.474;2023-01-30T14:38:40;11.80;;;7.37;;
6143;SDS011;3103;49.492;8.474;2023-01-30T14:41:24;13.97;;;8.07;;
6143;SDS011;3103;49.492;8.474;2023-01-30T14:43:52;14.10;;;6.57;;
6143;SDS011;3103;49.492;8.474;2023-01-30T14:56:53;10.53;;;4.60;;
6143;SDS011;3103;49.492;8.474;2023-01-30T15:07:46;7.87;;;5.80;;
6143;SDS011;3103;49.492;8.474;2023-01-30T15:13:37;11.73;;;4.37;;
6143;SDS011;3103;49.492;8.474;2023-01-30T15:16:18;6.67;;;4.57;;
6143;SDS011;3103;49.492;8.474;2023-01-30T15:21:47;4.37;;;3.57;;
6143;SDS011;3103;49.492;8.474;2023-01-30T15:32:31;8.30;;;5.83;;
6143;SDS011;3103;49.492;8.474;2023-01-30T15:34:59;7.37;;;4.03;;
6143;SDS011;3103;49.492;8.474;2023-01-30T15:42:43;5.87;;;3.70;;
6143;SDS011;3103;49.492;8.474;2023-01-30T15:45:12;5.37;;;3.83;;
6143;SDS011;3103;49.492;8.474;2023-01-30T15:50:31;3.93;;;3.53;;
6143;SDS011;3103;49.492;8.474;2023-01-30T15:52:58;4.80;;;3.97;;
6143;SDS011;3103;49.492;8.474;2023-01-30T15:55:25;8.00;;;5.10;;
6143;SDS011;3103;49.492;8.474;2023-01-30T15:57:55;14.57;;;7.03;;
6143;SDS011;3103;49.492;8.474;2023-01-30T16:00:29;9.23;;;5.10;;
6143;SDS011;3103;49.492;8.474;2023-01-30T16:02:59;6.97;;;4.10;;
6143;SDS011;3103;49.492;8.474;2023-01-30T16:05:29;5.57;;;4.10;;
6143;SDS011;3103;49.492;8.474;2023-01-30T16:07:56;10.40;;;5.07;;
6143;SDS011;3103;49.492;8.474;2023-01-30T16:10:25;11.93;;;5.33;;
6143;SDS011;3103;49.492;8.474;2023-01-30T16:12:54;7.07;;;4.40;;
6143;SDS011;3103;49.492;8.474;2023-01-30T16:18:17;7.27;;;4.30;;
6143;SDS011;3103;49.492;8.474;2023-01-30T16:21:04;7.37;;;4.07;;
6143;SDS011;3103;49.492;8.474;2023-01-30T16:23:41;6.53;;;4.13;;
6143;SDS011;3103;49.492;8.474;2023-01-30T16:26:19;6.53;;;3.73;;
6143;SDS011;3103;49.492;8.474;2023-01-30T16:28:48;5.20;;;4.00;;
6143;SDS011;3103;49.492;8.474;2023-01-30T16:31:16;4.83;;;3.90;;
6143;SDS011;3103;49.492;8.474;2023-01-30T16:33:51;9.03;;;5.60;;
6143;SDS011;3103;49.492;8.474;2023-01-30T16:38:45;6.17;;;4.53;;
6143;SDS011;3103;49.492;8.474;2023-01-30T16:44:09;11.50;;;5.20;;
6143;SDS011;3103;49.492;8.474;2023-01-30T16:46:59;7.70;;;5.27;;
6143;SDS011;3103;49.492;8.474;2023-01-30T16:55:07;10.10;;;5.17;;
6143;SDS011;3103;49.492;8.474;2023-01-30T16:57:45;10.23;;;5.43;;
6143;SDS011;3103;49.492;8.474;2023-01-30T17:03:18;8.63;;;5.27;;
6143;SDS011;3103;49.492;8.474;2023-01-30T17:05:49;11.17;;;5.23;;
6143;SDS011;3103;49.492;8.474;2023-01-30T17:14:22;5.50;;;4.50;;
6143;SDS011;3103;49.492;8.474;2023-01-30T17:17:00;9.13;;;4.90;;
6143;SDS011;3103;49.492;8.474;2023-01-30T17:19:33;9.13;;;5.87;;
6143;SDS011;3103;49.492;8.474;2023-01-30T17:22:01;9.27;;;5.37;;
6143;SDS011;3103;49.492;8.474;2023-01-30T17:24:30;9.40;;;4.87;;
6143;SDS011;3103;49.492;8.474;2023-01-30T17:27:00;6.63;;;4.50;;
6143;SDS011;3103;49.492;8.474;2023-01-30T17:29:29;8.90;;;5.17;;
6143;SDS011;3103;49.492;8.474;2023-01-30T17:32:12;7.33;;;5.00;;
6143;SDS011;3103;49.492;8.474;2023-01-30T17:34:40;15.23;;;5.97;;
6143;SDS011;3103;49.492;8.474;2023-01-30T17:37:13;8.90;;;4.47;;
6143;SDS011;3103;49.492;8.474;2023-01-30T17:39:40;7.37;;;4.00;;
6143;SDS011;3103;49.492;8.474;2023-01-30T17:42:10;7.17;;;5.23;;
6143;SDS011;3103;49.492;8.474;2023-01-30T17:44:40;5.00;;;4.23;;
6143;SDS011;3103;49.492;8.474;2023-01-30T17:47:08;11.97;;;5.10;;
6143;SDS011;3103;49.492;8.474;2023-01-30T17:49:37;6.30;;;4.93;;
6143;SDS011;3103;49.492;8.474;2023-01-30T17:52:04;7.90;;;4.70;;
6143;SDS011;3103;49.492;8.474;2023-01-30T17:54:31;11.43;;;5.00;;
6143;SDS011;3103;49.492;8.474;2023-01-30T17:56:58;5.87;;;4.80;;
6143;SDS011;3103;49.492;8.474;2023-01-30T17:59:27;8.53;;;5.10;;
6143;SDS011;3103;49.492;8.474;2023-01-30T18:01:54;10.03;;;5.03;;
6143;SDS011;3103;49.492;8.474;2023-01-30T18:04:21;12.13;;;5.43;;
6143;SDS011;3103;49.492;8.474;2023-01-30T18:06:49;9.10;;;5.53;;
6143;SDS011;3103;49.492;8.474;2023-01-30T18:09:20;16.07;;;6.60;;
6143;SDS011;3103;49.492;8.474;2023-01-30T18:11:48;6.43;;;4.90;;
6143;SDS011;3103;49.492;8.474;2023-01-30T18:14:15;9.57;;;5.50;;
6143;SDS011;3103;49.492;8.474;2023-01-30T18:16:43;6.63;;;4.77;;
6143;SDS011;3103;49.492;8.474;2023-01-30T18:19:11;8.73;;;5.43;;
6143;SDS011;3103;49.492;8.474;2023-01-30T18:21:39;8.33;;;5.23;;
6143;SDS011;3103;49.492;8.474;2023-01-30T18:24:08;6.43;;;5.03;;
6143;SDS011;3103;49.492;8.474;2023-01-30T18:26:35;10.53;;;6.13;;
6143;SDS011;3103;49.492;8.474;2023-01-30T18:29:01;9.57;;;6.03;;
6143;SDS011;3103;49.492;8.474;2023-01-30T18:31:29;8.40;;;5.73;;
6143;SDS011;3103;49.492;8.474;2023-01-30T18:33:57;8.17;;;5.57;;
6143;SDS011;3103;49.492;8.474;2023-01-30T18:36:26;8.97;;;5.47;;
6143;SDS011;3103;49.492;8.474;2023-01-30T18:38:54;10.00;;;5.83;;